Pine Bluff, Arkansas
Current Conditions -  °F | °C
As of 8:53 PM on Friday 28 Nov 2014 (Local Time) from KPBF Reporting Station
Clear Clear  
Wind Chill: 42°   Ceiling: Unl
Heat Index: 47°   Visibility: 10mi
Dew Point: 36°   Wind: 12mph
Humidity: 66%   Direction: 180°S
Pressure: 30.11"   Gusts: NA
Location:  34.22°N, 92°W
Report Text: KPBF 290253Z AUTO 18010KT 10SM CLR 08/02 A3011 RMK AO2 SLP194 T00830022 58007
Loading
Personal Weather Stations






























Interactive Weather Map New forecast layout! Learn more

10-Day Weather Forecast

Advertisements
Track Severe Weather on mobile